sensor_id;sensor_type;location;lat;lon;timestamp;P1;durP1;ratioP1;P2;durP2;ratioP2
66727;SDS011;53641;44.274;19.890;2022-08-03T00:01:41;4.97;;;1.85;;
66727;SDS011;53641;44.274;19.890;2022-08-03T00:04:08;3.78;;;2.20;;
66727;SDS011;53641;44.274;19.890;2022-08-03T00:06:35;5.07;;;1.88;;
66727;SDS011;53641;44.274;19.890;2022-08-03T00:09:01;9.82;;;2.47;;
66727;SDS011;53641;44.274;19.890;2022-08-03T00:11:28;5.43;;;2.83;;
66727;SDS011;53641;44.274;19.890;2022-08-03T00:13:53;2.55;;;1.80;;
66727;SDS011;53641;44.274;19.890;2022-08-03T00:16:19;5.90;;;2.45;;
66727;SDS011;53641;44.274;19.890;2022-08-03T00:18:45;3.53;;;2.42;;
66727;SDS011;53641;44.274;19.890;2022-08-03T00:21:11;4.00;;;2.28;;
66727;SDS011;53641;44.274;19.890;2022-08-03T00:23:36;3.70;;;2.38;;
66727;SDS011;53641;44.274;19.890;2022-08-03T00:26:02;4.90;;;2.10;;
66727;SDS011;53641;44.274;19.890;2022-08-03T00:28:28;2.72;;;2.10;;
66727;SDS011;53641;44.274;19.890;2022-08-03T00:30:54;3.10;;;2.10;;
66727;SDS011;53641;44.274;19.890;2022-08-03T00:33:20;5.35;;;2.13;;
66727;SDS011;53641;44.274;19.890;2022-08-03T00:35:46;4.38;;;1.80;;
66727;SDS011;53641;44.274;19.890;2022-08-03T00:38:12;3.33;;;2.20;;
66727;SDS011;53641;44.274;19.890;2022-08-03T00:40:38;4.45;;;2.67;;
66727;SDS011;53641;44.274;19.890;2022-08-03T00:43:04;4.55;;;2.08;;
66727;SDS011;53641;44.274;19.890;2022-08-03T00:45:33;2.65;;;1.75;;
66727;SDS011;53641;44.274;19.890;2022-08-03T00:47:59;4.60;;;1.90;;
66727;SDS011;53641;44.274;19.890;2022-08-03T00:50:26;9.43;;;2.28;;
66727;SDS011;53641;44.274;19.890;2022-08-03T00:52:55;3.78;;;2.08;;
66727;SDS011;53641;44.274;19.890;2022-08-03T00:55:23;3.53;;;1.67;;
66727;SDS011;53641;44.274;19.890;2022-08-03T00:57:49;6.95;;;2.40;;
66727;SDS011;53641;44.274;19.890;2022-08-03T01:00:17;5.00;;;2.45;;
66727;SDS011;53641;44.274;19.890;2022-08-03T01:02:44;6.78;;;2.33;;
66727;SDS011;53641;44.274;19.890;2022-08-03T01:05:10;3.60;;;2.20;;
66727;SDS011;53641;44.274;19.890;2022-08-03T01:08:13;4.38;;;2.20;;
66727;SDS011;53641;44.274;19.890;2022-08-03T01:10:53;3.55;;;1.77;;
66727;SDS011;53641;44.274;19.890;2022-08-03T01:13:52;4.05;;;1.92;;
66727;SDS011;53641;44.274;19.890;2022-08-03T01:16:18;4.45;;;1.80;;
66727;SDS011;53641;44.274;19.890;2022-08-03T01:18:58;3.20;;;1.70;;
66727;SDS011;53641;44.274;19.890;2022-08-03T01:21:30;6.82;;;2.30;;
66727;SDS011;53641;44.274;19.890;2022-08-03T01:24:05;4.38;;;2.47;;
66727;SDS011;53641;44.274;19.890;2022-08-03T01:26:58;4.00;;;2.10;;
66727;SDS011;53641;44.274;19.890;2022-08-03T01:29:49;3.92;;;2.60;;
66727;SDS011;53641;44.274;19.890;2022-08-03T01:33:21;5.18;;;2.75;;
66727;SDS011;53641;44.274;19.890;2022-08-03T01:35:12;6.45;;;2.80;;
66727;SDS011;53641;44.274;19.890;2022-08-03T01:37:42;4.07;;;2.60;;
66727;SDS011;53641;44.274;19.890;2022-08-03T01:40:14;6.18;;;2.92;;
66727;SDS011;53641;44.274;19.890;2022-08-03T01:42:41;4.38;;;2.78;;
66727;SDS011;53641;44.274;19.890;2022-08-03T01:45:10;4.55;;;2.80;;
66727;SDS011;53641;44.274;19.890;2022-08-03T01:47:38;6.20;;;2.35;;
66727;SDS011;53641;44.274;19.890;2022-08-03T01:50:06;4.38;;;2.47;;
66727;SDS011;53641;44.274;19.890;2022-08-03T01:52:33;4.20;;;2.25;;
66727;SDS011;53641;44.274;19.890;2022-08-03T01:55:01;7.53;;;2.60;;
66727;SDS011;53641;44.274;19.890;2022-08-03T01:57:29;4.82;;;2.78;;
66727;SDS011;53641;44.274;19.890;2022-08-03T01:59:55;11.02;;;3.25;;
66727;SDS011;53641;44.274;19.890;2022-08-03T02:02:23;6.85;;;2.83;;
66727;SDS011;53641;44.274;19.890;2022-08-03T02:04:50;6.18;;;2.22;;
66727;SDS011;53641;44.274;19.890;2022-08-03T02:07:18;4.43;;;2.75;;
66727;SDS011;53641;44.274;19.890;2022-08-03T02:09:45;7.63;;;2.30;;
66727;SDS011;53641;44.274;19.890;2022-08-03T02:12:14;3.30;;;2.13;;
66727;SDS011;53641;44.274;19.890;2022-08-03T02:14:40;6.70;;;2.50;;
66727;SDS011;53641;44.274;19.890;2022-08-03T02:17:08;4.38;;;2.25;;
66727;SDS011;53641;44.274;19.890;2022-08-03T02:19:35;3.67;;;2.33;;
66727;SDS011;53641;44.274;19.890;2022-08-03T02:22:03;6.80;;;2.30;;
66727;SDS011;53641;44.274;19.890;2022-08-03T02:24:30;3.70;;;2.22;;
66727;SDS011;53641;44.274;19.890;2022-08-03T02:26:56;4.25;;;2.70;;
66727;SDS011;53641;44.274;19.890;2022-08-03T02:29:24;13.35;;;2.80;;
66727;SDS011;53641;44.274;19.890;2022-08-03T02:31:53;6.77;;;2.13;;
66727;SDS011;53641;44.274;19.890;2022-08-03T02:36:51;2.90;;;2.13;;
66727;SDS011;53641;44.274;19.890;2022-08-03T02:39:19;3.97;;;2.25;;
66727;SDS011;53641;44.274;19.890;2022-08-03T02:41:50;3.70;;;2.35;;
66727;SDS011;53641;44.274;19.890;2022-08-03T02:44:17;3.88;;;2.40;;
66727;SDS011;53641;44.274;19.890;2022-08-03T02:46:52;4.30;;;2.33;;
66727;SDS011;53641;44.274;19.890;2022-08-03T02:51:47;5.25;;;2.47;;
66727;SDS011;53641;44.274;19.890;2022-08-03T02:54:16;9.77;;;3.78;;
66727;SDS011;53641;44.274;19.890;2022-08-03T02:56:47;7.60;;;3.95;;
66727;SDS011;53641;44.274;19.890;2022-08-03T02:59:13;4.70;;;3.38;;
66727;SDS011;53641;44.274;19.890;2022-08-03T03:01:42;6.80;;;3.20;;
66727;SDS011;53641;44.274;19.890;2022-08-03T03:04:09;3.55;;;2.28;;
66727;SDS011;53641;44.274;19.890;2022-08-03T03:06:36;3.05;;;2.15;;
66727;SDS011;53641;44.274;19.890;2022-08-03T03:09:03;2.72;;;1.80;;
66727;SDS011;53641;44.274;19.890;2022-08-03T03:11:29;4.38;;;2.25;;
66727;SDS011;53641;44.274;19.890;2022-08-03T03:13:55;3.72;;;2.63;;
66727;SDS011;53641;44.274;19.890;2022-08-03T03:16:22;3.03;;;2.00;;
66727;SDS011;53641;44.274;19.890;2022-08-03T03:18:50;7.53;;;2.35;;
66727;SDS011;53641;44.274;19.890;2022-08-03T03:21:17;3.92;;;2.17;;
66727;SDS011;53641;44.274;19.890;2022-08-03T03:23:45;6.68;;;2.53;;
66727;SDS011;53641;44.274;19.890;2022-08-03T03:26:12;4.97;;;2.25;;
66727;SDS011;53641;44.274;19.890;2022-08-03T03:28:39;5.07;;;2.35;;
66727;SDS011;53641;44.274;19.890;2022-08-03T03:31:05;4.10;;;2.42;;
66727;SDS011;53641;44.274;19.890;2022-08-03T03:33:32;4.97;;;2.63;;
66727;SDS011;53641;44.274;19.890;2022-08-03T03:35:58;4.63;;;2.28;;
66727;SDS011;53641;44.274;19.890;2022-08-03T03:38:24;3.33;;;2.30;;
66727;SDS011;53641;44.274;19.890;2022-08-03T03:40:50;5.53;;;2.30;;
66727;SDS011;53641;44.274;19.890;2022-08-03T03:43:16;4.95;;;2.67;;
66727;SDS011;53641;44.274;19.890;2022-08-03T03:45:42;4.43;;;2.22;;
66727;SDS011;53641;44.274;19.890;2022-08-03T03:48:09;6.00;;;2.47;;
66727;SDS011;53641;44.274;19.890;2022-08-03T03:50:35;4.85;;;2.85;;
66727;SDS011;53641;44.274;19.890;2022-08-03T03:53:05;4.80;;;2.33;;
66727;SDS011;53641;44.274;19.890;2022-08-03T03:55:33;3.97;;;2.40;;
66727;SDS011;53641;44.274;19.890;2022-08-03T03:57:59;4.75;;;2.63;;
66727;SDS011;53641;44.274;19.890;2022-08-03T04:00:25;6.47;;;2.80;;
66727;SDS011;53641;44.274;19.890;2022-08-03T04:02:51;5.10;;;2.28;;
66727;SDS011;53641;44.274;19.890;2022-08-03T04:05:16;8.00;;;2.72;;
66727;SDS011;53641;44.274;19.890;2022-08-03T04:08:06;6.38;;;2.53;;
66727;SDS011;53641;44.274;19.890;2022-08-03T04:10:55;3.30;;;2.35;;
66727;SDS011;53641;44.274;19.890;2022-08-03T04:13:32;9.23;;;2.45;;
66727;SDS011;53641;44.274;19.890;2022-08-03T04:15:59;6.75;;;2.50;;
66727;SDS011;53641;44.274;19.890;2022-08-03T04:18:26;6.13;;;3.20;;
66727;SDS011;53641;44.274;19.890;2022-08-03T04:20:55;10.75;;;3.28;;
66727;SDS011;53641;44.274;19.890;2022-08-03T04:23:25;11.73;;;2.50;;
66727;SDS011;53641;44.274;19.890;2022-08-03T04:25:52;3.90;;;2.33;;
66727;SDS011;53641;44.274;19.890;2022-08-03T04:28:20;12.55;;;2.85;;
66727;SDS011;53641;44.274;19.890;2022-08-03T04:30:47;7.10;;;3.08;;
66727;SDS011;53641;44.274;19.890;2022-08-03T04:33:15;4.70;;;2.72;;
66727;SDS011;53641;44.274;19.890;2022-08-03T04:35:43;6.65;;;2.72;;
66727;SDS011;53641;44.274;19.890;2022-08-03T04:38:12;3.95;;;2.50;;
66727;SDS011;53641;44.274;19.890;2022-08-03T04:40:40;4.30;;;2.78;;
66727;SDS011;53641;44.274;19.890;2022-08-03T04:43:08;5.72;;;2.67;;
66727;SDS011;53641;44.274;19.890;2022-08-03T04:45:35;3.17;;;2.70;;
66727;SDS011;53641;44.274;19.890;2022-08-03T04:48:02;3.10;;;2.38;;
66727;SDS011;53641;44.274;19.890;2022-08-03T04:50:29;4.10;;;2.92;;
66727;SDS011;53641;44.274;19.890;2022-08-03T04:52:55;4.55;;;2.95;;
66727;SDS011;53641;44.274;19.890;2022-08-03T04:55:27;6.93;;;3.20;;
66727;SDS011;53641;44.274;19.890;2022-08-03T04:57:54;3.60;;;2.53;;
66727;SDS011;53641;44.274;19.890;2022-08-03T05:00:21;5.25;;;2.60;;
66727;SDS011;53641;44.274;19.890;2022-08-03T05:02:47;10.50;;;3.17;;
66727;SDS011;53641;44.274;19.890;2022-08-03T05:05:13;7.63;;;2.63;;
66727;SDS011;53641;44.274;19.890;2022-08-03T05:07:40;3.58;;;2.38;;
66727;SDS011;53641;44.274;19.890;2022-08-03T05:10:07;6.53;;;3.17;;
66727;SDS011;53641;44.274;19.890;2022-08-03T05:12:34;5.22;;;2.63;;
66727;SDS011;53641;44.274;19.890;2022-08-03T05:15:00;4.95;;;2.88;;
66727;SDS011;53641;44.274;19.890;2022-08-03T05:17:26;5.15;;;2.72;;
66727;SDS011;53641;44.274;19.890;2022-08-03T05:19:52;8.30;;;3.45;;
66727;SDS011;53641;44.274;19.890;2022-08-03T05:22:18;7.07;;;3.10;;
66727;SDS011;53641;44.274;19.890;2022-08-03T05:24:44;9.07;;;3.20;;
66727;SDS011;53641;44.274;19.890;2022-08-03T05:27:10;7.40;;;3.78;;
66727;SDS011;53641;44.274;19.890;2022-08-03T05:29:41;5.57;;;2.90;;
66727;SDS011;53641;44.274;19.890;2022-08-03T05:32:07;8.63;;;2.50;;
66727;SDS011;53641;44.274;19.890;2022-08-03T05:34:33;8.65;;;2.45;;
66727;SDS011;53641;44.274;19.890;2022-08-03T05:36:59;6.25;;;2.92;;
66727;SDS011;53641;44.274;19.890;2022-08-03T05:39:25;3.40;;;2.63;;
66727;SDS011;53641;44.274;19.890;2022-08-03T05:41:50;8.15;;;2.40;;
66727;SDS011;53641;44.274;19.890;2022-08-03T05:44:16;3.30;;;2.55;;
66727;SDS011;53641;44.274;19.890;2022-08-03T05:46:42;5.70;;;2.72;;
66727;SDS011;53641;44.274;19.890;2022-08-03T05:49:08;6.97;;;2.80;;
66727;SDS011;53641;44.274;19.890;2022-08-03T05:51:33;3.55;;;2.50;;
66727;SDS011;53641;44.274;19.890;2022-08-03T05:54:01;7.65;;;2.50;;
66727;SDS011;53641;44.274;19.890;2022-08-03T05:56:27;5.13;;;2.50;;
66727;SDS011;53641;44.274;19.890;2022-08-03T05:58:53;4.57;;;3.05;;
66727;SDS011;53641;44.274;19.890;2022-08-03T06:01:18;5.47;;;2.67;;
66727;SDS011;53641;44.274;19.890;2022-08-03T06:03:48;4.05;;;2.72;;
66727;SDS011;53641;44.274;19.890;2022-08-03T06:06:15;10.40;;;3.22;;
66727;SDS011;53641;44.274;19.890;2022-08-03T06:08:41;4.00;;;1.80;;
66727;SDS011;53641;44.274;19.890;2022-08-03T06:11:08;4.32;;;2.45;;
66727;SDS011;53641;44.274;19.890;2022-08-03T06:13:34;4.78;;;2.38;;
66727;SDS011;53641;44.274;19.890;2022-08-03T06:16:00;3.22;;;2.00;;
66727;SDS011;53641;44.274;19.890;2022-08-03T06:18:26;7.03;;;2.17;;
66727;SDS011;53641;44.274;19.890;2022-08-03T06:20:52;4.78;;;2.50;;
66727;SDS011;53641;44.274;19.890;2022-08-03T06:23:18;3.85;;;2.13;;
66727;SDS011;53641;44.274;19.890;2022-08-03T06:25:44;3.50;;;1.95;;
66727;SDS011;53641;44.274;19.890;2022-08-03T06:28:10;4.80;;;3.30;;
66727;SDS011;53641;44.274;19.890;2022-08-03T06:30:38;2.20;;;2.00;;
66727;SDS011;53641;44.274;19.890;2022-08-03T06:33:03;4.28;;;2.10;;
66727;SDS011;53641;44.274;19.890;2022-08-03T06:35:29;7.22;;;2.03;;
66727;SDS011;53641;44.274;19.890;2022-08-03T06:37:55;3.53;;;2.30;;
66727;SDS011;53641;44.274;19.890;2022-08-03T06:40:22;3.25;;;2.13;;
66727;SDS011;53641;44.274;19.890;2022-08-03T06:42:59;2.85;;;2.10;;
66727;SDS011;53641;44.274;19.890;2022-08-03T06:45:26;2.60;;;1.98;;
66727;SDS011;53641;44.274;19.890;2022-08-03T06:48:00;3.83;;;2.15;;
66727;SDS011;53641;44.274;19.890;2022-08-03T06:50:29;4.03;;;2.00;;
66727;SDS011;53641;44.274;19.890;2022-08-03T06:52:55;4.38;;;2.50;;
66727;SDS011;53641;44.274;19.890;2022-08-03T06:55:21;4.82;;;2.33;;
66727;SDS011;53641;44.274;19.890;2022-08-03T06:57:47;2.92;;;2.40;;
66727;SDS011;53641;44.274;19.890;2022-08-03T07:00:13;8.13;;;2.95;;
66727;SDS011;53641;44.274;19.890;2022-08-03T07:02:39;3.10;;;2.72;;
66727;SDS011;53641;44.274;19.890;2022-08-03T07:05:05;3.33;;;2.35;;
66727;SDS011;53641;44.274;19.890;2022-08-03T07:07:33;3.05;;;2.75;;
66727;SDS011;53641;44.274;19.890;2022-08-03T07:09:58;3.92;;;2.50;;
66727;SDS011;53641;44.274;19.890;2022-08-03T07:12:25;4.53;;;2.55;;
66727;SDS011;53641;44.274;19.890;2022-08-03T07:14:52;6.88;;;3.63;;
66727;SDS011;53641;44.274;19.890;2022-08-03T07:17:18;5.00;;;2.78;;
66727;SDS011;53641;44.274;19.890;2022-08-03T07:19:44;2.90;;;2.63;;
66727;SDS011;53641;44.274;19.890;2022-08-03T07:22:09;6.72;;;2.80;;
66727;SDS011;53641;44.274;19.890;2022-08-03T07:24:35;4.82;;;2.95;;
66727;SDS011;53641;44.274;19.890;2022-08-03T07:27:01;5.55;;;3.17;;
66727;SDS011;53641;44.274;19.890;2022-08-03T07:29:27;3.60;;;3.30;;
66727;SDS011;53641;44.274;19.890;2022-08-03T07:31:53;5.13;;;3.28;;
66727;SDS011;53641;44.274;19.890;2022-08-03T07:34:19;4.57;;;3.38;;
66727;SDS011;53641;44.274;19.890;2022-08-03T07:36:45;3.65;;;3.17;;
66727;SDS011;53641;44.274;19.890;2022-08-03T07:39:11;6.20;;;3.15;;
66727;SDS011;53641;44.274;19.890;2022-08-03T07:41:36;4.70;;;3.60;;
66727;SDS011;53641;44.274;19.890;2022-08-03T07:44:02;3.60;;;3.30;;
66727;SDS011;53641;44.274;19.890;2022-08-03T07:46:28;4.55;;;3.17;;
66727;SDS011;53641;44.274;19.890;2022-08-03T07:48:54;6.35;;;3.38;;
66727;SDS011;53641;44.274;19.890;2022-08-03T07:51:20;6.35;;;3.45;;
66727;SDS011;53641;44.274;19.890;2022-08-03T07:53:49;4.70;;;4.30;;
66727;SDS011;53641;44.274;19.890;2022-08-03T07:56:15;4.65;;;4.25;;
66727;SDS011;53641;44.274;19.890;2022-08-03T07:58:41;10.32;;;4.22;;
66727;SDS011;53641;44.274;19.890;2022-08-03T08:01:06;4.45;;;4.15;;
66727;SDS011;53641;44.274;19.890;2022-08-03T08:03:32;6.00;;;4.30;;
66727;SDS011;53641;44.274;19.890;2022-08-03T08:05:58;6.35;;;4.70;;
66727;SDS011;53641;44.274;19.890;2022-08-03T08:08:24;5.13;;;4.68;;
66727;SDS011;53641;44.274;19.890;2022-08-03T08:10:50;7.38;;;4.65;;
66727;SDS011;53641;44.274;19.890;2022-08-03T08:13:16;5.70;;;4.70;;
66727;SDS011;53641;44.274;19.890;2022-08-03T08:15:42;5.03;;;4.60;;
66727;SDS011;53641;44.274;19.890;2022-08-03T08:18:07;5.20;;;4.70;;
66727;SDS011;53641;44.274;19.890;2022-08-03T08:20:34;5.40;;;4.90;;
66727;SDS011;53641;44.274;19.890;2022-08-03T08:23:03;7.13;;;5.30;;
66727;SDS011;53641;44.274;19.890;2022-08-03T08:25:32;6.63;;;5.15;;
66727;SDS011;53641;44.274;19.890;2022-08-03T08:27:58;8.15;;;5.40;;
66727;SDS011;53641;44.274;19.890;2022-08-03T08:30:28;5.63;;;5.10;;
66727;SDS011;53641;44.274;19.890;2022-08-03T08:32:55;5.90;;;5.38;;
66727;SDS011;53641;44.274;19.890;2022-08-03T08:35:22;5.90;;;5.22;;
66727;SDS011;53641;44.274;19.890;2022-08-03T08:37:48;6.93;;;5.40;;
66727;SDS011;53641;44.274;19.890;2022-08-03T08:40:14;5.20;;;4.70;;
66727;SDS011;53641;44.274;19.890;2022-08-03T08:42:40;10.35;;;5.20;;
66727;SDS011;53641;44.274;19.890;2022-08-03T08:45:07;5.05;;;4.65;;
66727;SDS011;53641;44.274;19.890;2022-08-03T08:50:02;5.03;;;4.30;;
66727;SDS011;53641;44.274;19.890;2022-08-03T08:52:29;4.80;;;4.28;;
66727;SDS011;53641;44.274;19.890;2022-08-03T08:54:59;4.40;;;4.10;;
66727;SDS011;53641;44.274;19.890;2022-08-03T08:57:28;5.15;;;3.90;;
66727;SDS011;53641;44.274;19.890;2022-08-03T08:59:57;4.50;;;3.90;;
66727;SDS011;53641;44.274;19.890;2022-08-03T09:02:27;4.45;;;3.88;;
66727;SDS011;53641;44.274;19.890;2022-08-03T09:04:54;3.50;;;3.20;;
66727;SDS011;53641;44.274;19.890;2022-08-03T09:07:21;5.00;;;3.40;;
66727;SDS011;53641;44.274;19.890;2022-08-03T09:09:47;3.45;;;3.00;;
66727;SDS011;53641;44.274;19.890;2022-08-03T09:12:13;6.18;;;3.20;;
66727;SDS011;53641;44.274;19.890;2022-08-03T09:14:39;4.18;;;3.10;;
66727;SDS011;53641;44.274;19.890;2022-08-03T09:17:05;3.88;;;3.13;;
66727;SDS011;53641;44.274;19.890;2022-08-03T09:19:32;3.35;;;3.03;;
66727;SDS011;53641;44.274;19.890;2022-08-03T09:22:11;5.25;;;2.65;;
66727;SDS011;53641;44.274;19.890;2022-08-03T09:24:55;6.82;;;2.80;;
66727;SDS011;53641;44.274;19.890;2022-08-03T09:27:25;11.30;;;2.88;;
66727;SDS011;53641;44.274;19.890;2022-08-03T09:29:53;2.72;;;2.53;;
66727;SDS011;53641;44.274;19.890;2022-08-03T09:32:19;3.05;;;2.03;;
66727;SDS011;53641;44.274;19.890;2022-08-03T09:34:47;2.65;;;1.77;;
66727;SDS011;53641;44.274;19.890;2022-08-03T09:37:16;2.03;;;1.38;;
66727;SDS011;53641;44.274;19.890;2022-08-03T09:39:43;2.60;;;1.90;;
66727;SDS011;53641;44.274;19.890;2022-08-03T09:42:13;2.40;;;1.70;;
66727;SDS011;53641;44.274;19.890;2022-08-03T09:44:46;4.63;;;2.35;;
66727;SDS011;53641;44.274;19.890;2022-08-03T09:47:14;3.67;;;2.00;;
66727;SDS011;53641;44.274;19.890;2022-08-03T09:49:58;2.33;;;1.80;;
66727;SDS011;53641;44.274;19.890;2022-08-03T09:52:36;4.13;;;1.50;;
66727;SDS011;53641;44.274;19.890;2022-08-03T09:55:10;7.20;;;1.70;;
66727;SDS011;53641;44.274;19.890;2022-08-03T09:57:38;2.53;;;1.60;;
66727;SDS011;53641;44.274;19.890;2022-08-03T10:00:12;2.95;;;1.63;;
66727;SDS011;53641;44.274;19.890;2022-08-03T10:02:40;2.30;;;1.55;;
66727;SDS011;53641;44.274;19.890;2022-08-03T10:05:08;2.13;;;1.55;;
66727;SDS011;53641;44.274;19.890;2022-08-03T10:07:45;1.85;;;1.42;;
66727;SDS011;53641;44.274;19.890;2022-08-03T10:10:12;4.25;;;1.48;;
66727;SDS011;53641;44.274;19.890;2022-08-03T10:12:39;2.03;;;1.70;;
66727;SDS011;53641;44.274;19.890;2022-08-03T10:15:06;3.33;;;1.35;;
66727;SDS011;53641;44.274;19.890;2022-08-03T10:17:32;2.75;;;1.60;;
66727;SDS011;53641;44.274;19.890;2022-08-03T10:19:58;4.13;;;1.80;;
66727;SDS011;53641;44.274;19.890;2022-08-03T10:22:28;2.22;;;1.75;;
66727;SDS011;53641;44.274;19.890;2022-08-03T10:24:59;1.92;;;1.60;;
66727;SDS011;53641;44.274;19.890;2022-08-03T10:27:31;6.28;;;1.88;;
66727;SDS011;53641;44.274;19.890;2022-08-03T10:30:05;3.78;;;2.10;;
66727;SDS011;53641;44.274;19.890;2022-08-03T10:32:33;3.25;;;1.77;;
66727;SDS011;53641;44.274;19.890;2022-08-03T10:35:07;2.95;;;1.70;;
66727;SDS011;53641;44.274;19.890;2022-08-03T10:37:36;1.95;;;1.38;;
66727;SDS011;53641;44.274;19.890;2022-08-03T10:40:06;3.90;;;1.75;;
66727;SDS011;53641;44.274;19.890;2022-08-03T10:42:34;4.07;;;1.85;;
66727;SDS011;53641;44.274;19.890;2022-08-03T10:45:04;2.83;;;1.77;;
66727;SDS011;53641;44.274;19.890;2022-08-03T10:47:32;3.50;;;1.40;;
66727;SDS011;53641;44.274;19.890;2022-08-03T10:49:59;6.18;;;1.88;;
66727;SDS011;53641;44.274;19.890;2022-08-03T10:52:26;2.97;;;1.90;;
66727;SDS011;53641;44.274;19.890;2022-08-03T10:54:51;8.10;;;1.75;;
66727;SDS011;53641;44.274;19.890;2022-08-03T10:57:44;2.22;;;1.52;;
66727;SDS011;53641;44.274;19.890;2022-08-03T11:00:13;4.43;;;1.88;;
66727;SDS011;53641;44.274;19.890;2022-08-03T11:03:03;2.75;;;1.80;;
66727;SDS011;53641;44.274;19.890;2022-08-03T11:05:41;2.67;;;1.70;;
66727;SDS011;53641;44.274;19.890;2022-08-03T11:08:42;3.92;;;1.73;;
66727;SDS011;53641;44.274;19.890;2022-08-03T11:10:59;3.92;;;1.85;;
66727;SDS011;53641;44.274;19.890;2022-08-03T11:13:27;5.45;;;1.85;;
66727;SDS011;53641;44.274;19.890;2022-08-03T11:15:57;5.13;;;1.80;;
66727;SDS011;53641;44.274;19.890;2022-08-03T11:18:25;2.00;;;1.42;;
66727;SDS011;53641;44.274;19.890;2022-08-03T11:20:52;5.93;;;1.60;;
66727;SDS011;53641;44.274;19.890;2022-08-03T11:23:42;6.15;;;2.10;;
66727;SDS011;53641;44.274;19.890;2022-08-03T11:26:10;4.82;;;2.78;;
66727;SDS011;53641;44.274;19.890;2022-08-03T11:28:36;3.60;;;1.60;;
66727;SDS011;53641;44.274;19.890;2022-08-03T11:34:14;2.03;;;1.45;;
66727;SDS011;53641;44.274;19.890;2022-08-03T11:39:39;3.30;;;2.15;;
66727;SDS011;53641;44.274;19.890;2022-08-03T11:42:37;2.10;;;1.67;;
66727;SDS011;53641;44.274;19.890;2022-08-03T11:45:02;3.53;;;1.95;;
66727;SDS011;53641;44.274;19.890;2022-08-03T11:47:34;4.67;;;1.87;;
66727;SDS011;53641;44.274;19.890;2022-08-03T11:50:01;2.90;;;2.53;;
66727;SDS011;53641;44.274;19.890;2022-08-03T11:52:33;6.78;;;1.88;;
66727;SDS011;53641;44.274;19.890;2022-08-03T11:54:59;5.95;;;3.08;;
66727;SDS011;53641;44.274;19.890;2022-08-03T11:57:32;4.88;;;2.67;;
66727;SDS011;53641;44.274;19.890;2022-08-03T11:59:59;2.80;;;2.30;;
66727;SDS011;53641;44.274;19.890;2022-08-03T12:02:25;3.83;;;1.65;;
66727;SDS011;53641;44.274;19.890;2022-08-03T12:04:52;3.97;;;2.30;;
66727;SDS011;53641;44.274;19.890;2022-08-03T12:07:18;2.83;;;1.67;;
66727;SDS011;53641;44.274;19.890;2022-08-03T12:10:04;5.03;;;2.03;;
66727;SDS011;53641;44.274;19.890;2022-08-03T12:12:34;2.45;;;1.83;;
66727;SDS011;53641;44.274;19.890;2022-08-03T12:15:00;3.30;;;1.77;;
66727;SDS011;53641;44.274;19.890;2022-08-03T12:17:33;4.65;;;1.80;;
66727;SDS011;53641;44.274;19.890;2022-08-03T12:20:00;2.28;;;1.75;;
66727;SDS011;53641;44.274;19.890;2022-08-03T12:22:39;2.55;;;1.60;;
66727;SDS011;53641;44.274;19.890;2022-08-03T12:25:05;2.20;;;1.63;;
66727;SDS011;53641;44.274;19.890;2022-08-03T12:27:32;4.47;;;1.48;;
66727;SDS011;53641;44.274;19.890;2022-08-03T12:29:58;5.97;;;1.55;;
66727;SDS011;53641;44.274;19.890;2022-08-03T12:32:26;2.28;;;1.75;;
66727;SDS011;53641;44.274;19.890;2022-08-03T12:34:53;3.75;;;1.85;;
66727;SDS011;53641;44.274;19.890;2022-08-03T12:37:23;3.50;;;1.58;;
66727;SDS011;53641;44.274;19.890;2022-08-03T12:39:50;2.33;;;1.70;;
66727;SDS011;53641;44.274;19.890;2022-08-03T12:42:17;2.40;;;1.45;;
66727;SDS011;53641;44.274;19.890;2022-08-03T12:44:43;2.20;;;1.55;;
66727;SDS011;53641;44.274;19.890;2022-08-03T12:47:10;2.53;;;1.50;;
66727;SDS011;53641;44.274;19.890;2022-08-03T12:49:46;1.90;;;1.65;;
66727;SDS011;53641;44.274;19.890;2022-08-03T12:52:13;19.83;;;2.28;;
66727;SDS011;53641;44.274;19.890;2022-08-03T12:54:39;2.03;;;1.52;;
66727;SDS011;53641;44.274;19.890;2022-08-03T12:57:06;2.40;;;1.85;;
66727;SDS011;53641;44.274;19.890;2022-08-03T12:59:37;4.10;;;1.90;;
66727;SDS011;53641;44.274;19.890;2022-08-03T13:02:13;3.65;;;2.08;;
66727;SDS011;53641;44.274;19.890;2022-08-03T13:04:40;2.78;;;1.90;;
66727;SDS011;53641;44.274;19.890;2022-08-03T13:07:07;6.07;;;2.28;;
66727;SDS011;53641;44.274;19.890;2022-08-03T13:09:41;2.95;;;1.83;;
66727;SDS011;53641;44.274;19.890;2022-08-03T13:12:09;4.07;;;2.10;;
66727;SDS011;53641;44.274;19.890;2022-08-03T13:14:38;3.45;;;1.60;;
66727;SDS011;53641;44.274;19.890;2022-08-03T13:17:04;5.13;;;1.83;;
66727;SDS011;53641;44.274;19.890;2022-08-03T13:19:31;3.80;;;1.80;;
66727;SDS011;53641;44.274;19.890;2022-08-03T13:21:58;3.72;;;1.90;;
66727;SDS011;53641;44.274;19.890;2022-08-03T13:24:23;2.72;;;1.83;;
66727;SDS011;53641;44.274;19.890;2022-08-03T13:26:49;4.57;;;1.90;;
66727;SDS011;53641;44.274;19.890;2022-08-03T13:29:15;3.00;;;1.70;;
66727;SDS011;53641;44.274;19.890;2022-08-03T13:31:41;3.05;;;1.83;;
66727;SDS011;53641;44.274;19.890;2022-08-03T13:34:07;3.38;;;2.00;;
66727;SDS011;53641;44.274;19.890;2022-08-03T13:36:33;2.80;;;1.92;;
66727;SDS011;53641;44.274;19.890;2022-08-03T13:38:59;3.03;;;1.83;;
66727;SDS011;53641;44.274;19.890;2022-08-03T13:41:25;7.65;;;2.00;;
66727;SDS011;53641;44.274;19.890;2022-08-03T13:43:50;5.18;;;2.63;;
66727;SDS011;53641;44.274;19.890;2022-08-03T13:46:16;3.00;;;2.05;;
66727;SDS011;53641;44.274;19.890;2022-08-03T13:48:42;5.32;;;2.50;;
66727;SDS011;53641;44.274;19.890;2022-08-03T13:51:08;3.45;;;1.85;;
66727;SDS011;53641;44.274;19.890;2022-08-03T13:53:34;6.38;;;2.40;;
66727;SDS011;53641;44.274;19.890;2022-08-03T13:55:59;2.80;;;2.20;;
66727;SDS011;53641;44.274;19.890;2022-08-03T13:58:25;5.45;;;2.50;;
66727;SDS011;53641;44.274;19.890;2022-08-03T14:00:51;6.32;;;2.97;;
66727;SDS011;53641;44.274;19.890;2022-08-03T14:03:17;4.15;;;2.47;;
66727;SDS011;53641;44.274;19.890;2022-08-03T14:05:42;4.80;;;3.05;;
66727;SDS011;53641;44.274;19.890;2022-08-03T14:08:09;3.63;;;2.35;;
66727;SDS011;53641;44.274;19.890;2022-08-03T14:10:36;5.75;;;2.92;;
66727;SDS011;53641;44.274;19.890;2022-08-03T14:13:03;3.45;;;2.67;;
66727;SDS011;53641;44.274;19.890;2022-08-03T14:15:29;7.15;;;2.70;;
66727;SDS011;53641;44.274;19.890;2022-08-03T14:17:55;4.90;;;2.58;;
66727;SDS011;53641;44.274;19.890;2022-08-03T14:20:22;3.75;;;2.95;;
66727;SDS011;53641;44.274;19.890;2022-08-03T14:22:47;8.23;;;3.08;;
66727;SDS011;53641;44.274;19.890;2022-08-03T14:25:13;5.82;;;2.55;;
66727;SDS011;53641;44.274;19.890;2022-08-03T14:27:39;6.50;;;2.72;;
66727;SDS011;53641;44.274;19.890;2022-08-03T14:30:05;5.43;;;2.78;;
66727;SDS011;53641;44.274;19.890;2022-08-03T14:32:31;3.75;;;2.75;;
66727;SDS011;53641;44.274;19.890;2022-08-03T14:34:59;5.80;;;2.97;;
66727;SDS011;53641;44.274;19.890;2022-08-03T14:37:26;5.32;;;3.13;;
66727;SDS011;53641;44.274;19.890;2022-08-03T14:39:52;4.38;;;2.40;;
66727;SDS011;53641;44.274;19.890;2022-08-03T14:42:18;8.07;;;2.35;;
66727;SDS011;53641;44.274;19.890;2022-08-03T14:44:44;4.97;;;2.47;;
66727;SDS011;53641;44.274;19.890;2022-08-03T14:47:10;4.50;;;2.95;;
66727;SDS011;53641;44.274;19.890;2022-08-03T14:49:36;4.75;;;2.58;;
66727;SDS011;53641;44.274;19.890;2022-08-03T14:52:02;4.90;;;2.40;;
66727;SDS011;53641;44.274;19.890;2022-08-03T14:54:28;5.18;;;2.63;;